createdAt,value
2024-03-12T00:01:55.202Z,13.82
2024-03-12T00:04:23.735Z,13.77
2024-03-12T00:06:52.306Z,13.55
2024-03-12T00:09:23.588Z,14.02
2024-03-12T00:11:53.898Z,14.45
2024-03-12T00:14:22.357Z,15.07
2024-03-12T00:16:50.838Z,15.18
2024-03-12T00:19:19.544Z,15.48
2024-03-12T00:21:48.160Z,15.52
2024-03-12T00:24:16.648Z,15.20
2024-03-12T00:26:48.808Z,15.45
2024-03-12T00:29:20.386Z,15.65
2024-03-12T00:31:48.808Z,15.40
2024-03-12T00:34:17.259Z,14.93
2024-03-12T00:36:47.274Z,14.75
2024-03-12T00:39:17.060Z,14.65
2024-03-12T00:41:46.855Z,15.85
2024-03-12T00:44:15.473Z,15.60
2024-03-12T00:46:43.913Z,15.38
2024-03-12T00:49:12.366Z,14.00
2024-03-12T00:51:41.615Z,15.93
2024-03-12T00:54:12.101Z,15.05
2024-03-12T00:56:40.521Z,16.17
2024-03-12T00:59:11.405Z,17.08
2024-03-12T01:01:40.056Z,16.02
2024-03-12T01:04:08.619Z,16.10
2024-03-12T01:06:37.089Z,16.27
2024-03-12T01:09:07.585Z,16.70
2024-03-12T01:11:36.668Z,15.88
2024-03-12T01:14:05.711Z,15.48
2024-03-12T01:16:35.526Z,15.13
2024-03-12T01:19:06.911Z,14.65
2024-03-12T01:21:35.388Z,15.32
2024-03-12T01:24:05.955Z,15.13
2024-03-12T01:26:35.803Z,15.18
2024-03-12T01:29:04.776Z,15.48
2024-03-12T01:31:33.577Z,15.30
2024-03-12T01:34:03.810Z,16.52
2024-03-12T01:36:36.562Z,15.50
2024-03-12T01:39:09.317Z,15.98
2024-03-12T01:41:43.026Z,15.23
2024-03-12T01:44:11.768Z,15.15
2024-03-12T01:46:40.980Z,14.23
2024-03-12T01:49:11.510Z,15.13
2024-03-12T01:51:40.444Z,15.25
2024-03-12T01:54:10.119Z,15.48
2024-03-12T01:56:38.625Z,15.82
2024-03-12T01:59:07.345Z,16.88
2024-03-12T02:01:37.972Z,16.20
2024-03-12T02:04:08.184Z,14.55
2024-03-12T02:06:39.991Z,16.98
2024-03-12T02:09:08.472Z,17.45
2024-03-12T02:11:37.382Z,17.58
2024-03-12T02:14:08.567Z,17.77
2024-03-12T02:16:40.169Z,17.90
2024-03-12T02:19:09.777Z,17.33
2024-03-12T02:21:39.667Z,17.67
2024-03-12T02:24:10.007Z,17.63
2024-03-12T02:26:38.469Z,16.63
2024-03-12T02:29:08.940Z,17.30
2024-03-12T02:31:37.764Z,17.08
2024-03-12T02:34:06.426Z,17.90
2024-03-12T02:36:38.321Z,17.52
2024-03-12T02:39:08.263Z,16.92
2024-03-12T02:41:38.109Z,18.33
2024-03-12T02:44:07.476Z,17.98
2024-03-12T02:46:36.122Z,17.20
2024-03-12T02:49:04.983Z,16.13
2024-03-12T02:51:33.528Z,17.15
2024-03-12T02:54:02.117Z,17.65
2024-03-12T02:56:30.468Z,17.92
2024-03-12T02:59:00.328Z,18.40
2024-03-12T03:01:28.892Z,18.65
2024-03-12T03:03:58.786Z,18.85
2024-03-12T03:06:27.263Z,19.15
2024-03-12T03:08:55.671Z,18.92
2024-03-12T03:11:24.116Z,19.52
2024-03-12T03:13:52.775Z,18.55
2024-03-12T03:16:23.768Z,19.50
2024-03-12T03:18:54.423Z,18.17
2024-03-12T03:21:22.940Z,17.60
2024-03-12T03:23:51.353Z,18.38
2024-03-12T03:26:19.833Z,19.42
2024-03-12T03:28:49.621Z,19.33
2024-03-12T03:31:18.100Z,18.80
2024-03-12T03:33:48.723Z,20.23
2024-03-12T03:36:18.116Z,20.20
2024-03-12T03:38:46.576Z,21.42
2024-03-12T03:41:14.944Z,21.33
2024-03-12T03:43:44.316Z,20.40
2024-03-12T03:46:12.824Z,21.13
2024-03-12T03:48:41.767Z,22.33
2024-03-12T03:51:11.577Z,23.70
2024-03-12T03:53:41.508Z,23.08
2024-03-12T03:56:17.041Z,23.23
2024-03-12T03:58:45.814Z,22.00
2024-03-12T04:01:15.081Z,22.73
2024-03-12T04:03:43.730Z,23.70
2024-03-12T04:06:13.615Z,23.25
2024-03-12T04:08:42.081Z,23.02
2024-03-12T04:11:11.129Z,23.60
2024-03-12T04:13:41.514Z,21.90
2024-03-12T04:16:11.751Z,24.38
2024-03-12T04:18:40.334Z,23.38
2024-03-12T04:21:09.177Z,22.98
2024-03-12T04:23:38.997Z,22.73
2024-03-12T04:26:07.530Z,22.48
2024-03-12T04:28:37.662Z,23.48
2024-03-12T04:31:08.337Z,22.80
2024-03-12T04:33:37.524Z,22.27
2024-03-12T04:36:08.222Z,21.90
2024-03-12T04:38:38.160Z,22.42
2024-03-12T04:41:06.790Z,22.38
2024-03-12T04:43:35.203Z,22.00
2024-03-12T04:46:03.857Z,20.70
2024-03-12T04:48:32.498Z,21.40
2024-03-12T04:51:01.031Z,22.27
2024-03-12T04:53:29.468Z,21.92
2024-03-12T04:55:59.506Z,20.98
2024-03-12T04:58:27.895Z,20.73
2024-03-12T05:00:56.375Z,22.02
2024-03-12T05:03:24.833Z,22.35
2024-03-12T05:05:53.266Z,22.15
2024-03-12T05:08:21.735Z,22.58
2024-03-12T05:10:50.175Z,22.52
2024-03-12T05:13:22.824Z,20.77
2024-03-12T05:15:51.387Z,21.20
2024-03-12T05:18:19.871Z,20.60
2024-03-12T05:20:48.455Z,22.08
2024-03-12T05:23:16.840Z,22.80
2024-03-12T05:25:47.572Z,22.33
2024-03-12T05:28:16.263Z,22.95
2024-03-12T05:30:46.103Z,23.77
2024-03-12T05:33:16.312Z,21.33
2024-03-12T05:35:50.813Z,22.63
2024-03-12T05:38:33.784Z,21.95
2024-03-12T05:41:26.561Z,23.30
2024-03-12T05:44:12.429Z,21.95
2024-03-12T05:46:59.667Z,21.67
2024-03-12T05:49:28.169Z,22.67
2024-03-12T05:51:56.921Z,23.63
2024-03-12T05:54:25.579Z,23.40
2024-03-12T05:56:54.036Z,23.88
2024-03-12T05:59:23.943Z,23.77
2024-03-12T06:01:54.021Z,22.73
2024-03-12T06:04:22.569Z,21.83
2024-03-12T06:06:51.056Z,23.05
2024-03-12T06:09:23.907Z,22.20
2024-03-12T06:11:52.474Z,22.90
2024-03-12T06:14:20.964Z,23.92
2024-03-12T06:16:49.337Z,22.85
2024-03-12T06:19:19.178Z,22.25
2024-03-12T06:21:47.691Z,23.05
2024-03-12T06:24:16.169Z,22.30
2024-03-12T06:26:45.236Z,21.95
2024-03-12T06:29:15.251Z,23.70
2024-03-12T06:31:43.689Z,22.45
2024-03-12T06:34:12.127Z,21.83
2024-03-12T06:36:41.914Z,22.35
2024-03-12T06:39:14.961Z,22.58
2024-03-12T06:41:43.544Z,21.95
2024-03-12T06:44:16.917Z,22.98
2024-03-12T06:46:46.289Z,22.80
2024-03-12T06:49:15.493Z,23.88
2024-03-12T06:51:48.475Z,23.63
2024-03-12T06:54:17.005Z,22.02
2024-03-12T06:56:47.781Z,21.80
2024-03-12T06:59:16.947Z,22.95
2024-03-12T07:01:46.803Z,22.83
2024-03-12T07:04:15.300Z,21.63
2024-03-12T07:06:44.265Z,22.45
2024-03-12T07:09:24.269Z,22.60
2024-03-12T07:11:53.380Z,24.00
2024-03-12T07:14:28.798Z,22.52
2024-03-12T07:16:57.904Z,23.55
2024-03-12T07:19:26.547Z,24.73
2024-03-12T07:21:56.095Z,23.95
2024-03-12T07:24:26.029Z,25.08
2024-03-12T07:26:54.482Z,23.83
2024-03-12T07:29:24.781Z,24.75
2024-03-12T07:31:54.331Z,23.80
2024-03-12T07:34:22.813Z,24.45
2024-03-12T07:36:51.374Z,26.23
2024-03-12T07:39:26.861Z,25.58
2024-03-12T07:41:57.422Z,24.02
2024-03-12T07:44:25.928Z,24.65
2024-03-12T07:46:56.129Z,24.80
2024-03-12T07:49:25.019Z,25.52
2024-03-12T07:51:53.791Z,26.85
2024-03-12T07:54:22.370Z,27.63
2024-03-12T07:56:51.063Z,26.65
2024-03-12T07:59:23.421Z,25.63
2024-03-12T08:01:54.226Z,26.65
2024-03-12T08:04:23.470Z,26.50
2024-03-12T08:06:51.957Z,26.70
2024-03-12T08:09:20.687Z,28.33
2024-03-12T08:11:49.478Z,27.95
2024-03-12T08:14:19.044Z,26.50
2024-03-12T08:16:50.482Z,27.40
2024-03-12T08:19:19.087Z,26.98
2024-03-12T08:21:47.950Z,27.85
2024-03-12T08:24:16.797Z,27.00
2024-03-12T08:26:45.207Z,28.15
2024-03-12T08:29:14.874Z,26.83
2024-03-12T08:31:47.691Z,27.35
2024-03-12T08:34:22.379Z,27.88
2024-03-12T08:36:51.330Z,28.80
2024-03-12T08:39:20.224Z,29.45
2024-03-12T08:41:48.607Z,31.10
2024-03-12T08:44:17.091Z,31.42
2024-03-12T08:46:46.226Z,30.48
2024-03-12T08:49:14.875Z,31.30
2024-03-12T08:51:44.759Z,33.33
2024-03-12T08:54:15.181Z,32.53
2024-03-12T08:56:44.532Z,31.10
2024-03-12T08:59:17.126Z,32.85
2024-03-12T09:01:46.083Z,33.80
2024-03-12T09:04:14.940Z,31.63
2024-03-12T09:06:44.829Z,34.53
2024-03-12T09:09:17.285Z,34.85
2024-03-12T09:11:47.792Z,35.10
2024-03-12T09:14:16.233Z,34.72
2024-03-12T09:16:44.673Z,33.88
2024-03-12T09:19:14.633Z,33.75
2024-03-12T09:21:44.932Z,34.97
2024-03-12T09:24:14.758Z,34.53
2024-03-12T09:26:45.378Z,33.45
2024-03-12T09:29:14.705Z,34.45
2024-03-12T09:31:44.238Z,33.35
2024-03-12T09:34:13.583Z,33.65
2024-03-12T09:36:44.558Z,33.45
2024-03-12T09:39:12.981Z,33.17
2024-03-12T09:41:46.144Z,33.10
2024-03-12T09:44:14.778Z,33.22
2024-03-12T09:46:43.641Z,34.05
2024-03-12T09:49:14.648Z,34.10
2024-03-12T09:51:45.779Z,32.80
2024-03-12T09:54:14.283Z,33.97
2024-03-12T09:56:44.115Z,34.22
2024-03-12T09:59:12.887Z,32.70
2024-03-12T10:01:41.457Z,31.27
2024-03-12T10:04:14.126Z,30.55
2024-03-12T10:06:42.878Z,30.83
2024-03-12T10:09:18.656Z,30.42
2024-03-12T10:11:47.222Z,30.38
2024-03-12T10:14:18.812Z,31.58
2024-03-12T10:16:47.415Z,29.63
2024-03-12T10:19:16.970Z,31.10
2024-03-12T10:21:47.384Z,30.35
2024-03-12T10:24:22.747Z,31.15
2024-03-12T10:26:52.009Z,29.95
2024-03-12T10:29:20.877Z,30.58
2024-03-12T10:31:51.462Z,28.75
2024-03-12T10:34:21.217Z,29.30
2024-03-12T10:36:51.533Z,29.73
2024-03-12T10:39:30.106Z,29.58
2024-03-12T10:42:00.852Z,30.25
2024-03-12T10:44:32.020Z,29.98
2024-03-12T10:47:02.311Z,30.42
2024-03-12T10:49:31.898Z,31.42
2024-03-12T10:52:00.874Z,30.20
2024-03-12T10:54:36.210Z,30.70
2024-03-12T10:57:07.925Z,29.20
2024-03-12T10:59:39.046Z,29.77
2024-03-12T11:02:09.110Z,30.10
2024-03-12T11:04:38.529Z,30.67
2024-03-12T11:07:09.753Z,30.00
2024-03-12T11:09:41.816Z,29.85
2024-03-12T11:12:10.960Z,28.67
2024-03-12T11:14:40.027Z,28.17
2024-03-12T11:17:26.856Z,30.27
2024-03-12T11:19:57.496Z,27.48
2024-03-12T11:22:28.318Z,26.65
2024-03-12T11:24:59.390Z,26.30
2024-03-12T11:27:28.417Z,25.92
2024-03-12T11:30:17.538Z,25.98
2024-03-12T11:32:50.152Z,25.70
2024-03-12T11:35:34.337Z,26.08
2024-03-12T11:38:11.295Z,25.83
2024-03-12T11:40:50.393Z,24.85
2024-03-12T11:43:39.347Z,22.95
2024-03-12T11:46:09.222Z,22.35
2024-03-12T11:48:40.137Z,22.25
2024-03-12T11:51:13.106Z,21.73
2024-03-12T11:53:43.361Z,21.00
2024-03-12T11:56:19.976Z,21.20
2024-03-12T11:58:59.615Z,18.63
2024-03-12T12:01:35.132Z,20.08
2024-03-12T12:04:06.330Z,19.27
2024-03-12T12:06:35.884Z,20.20
2024-03-12T12:09:07.003Z,18.67
2024-03-12T12:11:38.957Z,18.15
2024-03-12T12:14:10.564Z,18.63
2024-03-12T12:16:40.611Z,18.02
2024-03-12T12:19:16.650Z,17.10
2024-03-12T12:21:51.339Z,16.63
2024-03-12T12:24:20.136Z,17.08
2024-03-12T12:26:50.087Z,17.10
2024-03-12T12:29:18.992Z,15.48
2024-03-12T12:41:47.804Z,12.60
2024-03-12T12:44:18.937Z,13.43
2024-03-12T12:46:49.378Z,11.20
2024-03-12T12:49:18.790Z,11.60
2024-03-12T12:51:48.283Z,9.88
2024-03-12T12:54:19.427Z,9.90
2024-03-12T12:56:50.593Z,9.75
2024-03-12T12:59:21.691Z,9.02
2024-03-12T13:01:51.125Z,8.15
2024-03-12T13:04:23.346Z,9.10
2024-03-12T13:06:53.011Z,8.90
2024-03-12T13:09:32.796Z,9.32
2024-03-12T13:12:04.861Z,8.68
2024-03-12T13:14:34.901Z,9.65
2024-03-12T13:17:04.783Z,8.30
2024-03-12T13:19:34.054Z,8.98
2024-03-12T13:22:10.220Z,9.93
2024-03-12T13:24:45.033Z,9.88
2024-03-12T13:27:15.800Z,10.18
2024-03-12T13:29:44.602Z,10.55
2024-03-12T13:32:13.870Z,10.02
2024-03-12T13:34:43.116Z,10.20
2024-03-12T13:37:13.785Z,9.57
2024-03-12T13:39:42.672Z,10.52
2024-03-12T13:42:11.545Z,10.55
2024-03-12T13:44:41.390Z,10.73
2024-03-12T13:47:09.846Z,10.95
2024-03-12T13:49:38.276Z,11.15
2024-03-12T13:52:07.873Z,11.10
2024-03-12T13:54:36.708Z,12.35
2024-03-12T13:57:05.384Z,11.80
2024-03-12T13:59:34.640Z,13.27
2024-03-12T14:02:04.703Z,11.35
2024-03-12T14:04:33.643Z,11.88
2024-03-12T14:07:02.262Z,12.07
2024-03-12T14:09:30.727Z,12.52
2024-03-12T14:11:59.985Z,12.93
2024-03-12T14:14:29.297Z,10.63
2024-03-12T14:16:57.724Z,11.18
2024-03-12T14:19:27.560Z,12.00
2024-03-12T14:21:56.143Z,11.30
2024-03-12T14:24:24.653Z,10.80
2024-03-12T14:26:53.081Z,11.40
2024-03-12T14:29:21.416Z,12.35
2024-03-12T14:31:50.157Z,13.20
2024-03-12T14:34:18.628Z,12.48
2024-03-12T14:36:48.497Z,13.73
2024-03-12T14:39:16.938Z,12.82
2024-03-12T14:41:45.409Z,13.60
2024-03-12T14:44:14.484Z,14.95
2024-03-12T14:46:43.341Z,14.50
2024-03-12T14:49:14.162Z,15.10
2024-03-12T14:51:42.713Z,14.43
2024-03-12T14:54:12.580Z,15.05
2024-03-12T14:56:41.594Z,15.98
2024-03-12T14:59:10.433Z,15.18
2024-03-12T15:01:38.907Z,16.55
2024-03-12T15:04:08.061Z,18.00
2024-03-12T15:06:37.050Z,15.98
2024-03-12T15:09:06.191Z,16.27
2024-03-12T15:11:36.076Z,16.02
2024-03-12T15:14:07.375Z,16.55
2024-03-12T15:16:37.222Z,16.98
2024-03-12T15:19:06.586Z,16.13
2024-03-12T15:21:35.167Z,17.10
2024-03-12T15:24:03.570Z,21.40
2024-03-12T15:26:32.104Z,16.40
2024-03-12T15:29:03.033Z,15.38
2024-03-12T15:31:31.596Z,16.67
2024-03-12T15:34:00.064Z,15.75
2024-03-12T15:36:28.498Z,14.93
2024-03-12T15:38:56.885Z,15.23
2024-03-12T15:41:26.656Z,14.77
2024-03-12T15:43:55.887Z,14.38
2024-03-12T15:46:25.718Z,14.55
2024-03-12T15:48:54.344Z,13.65
2024-03-12T15:51:24.689Z,14.05
2024-03-12T15:53:53.150Z,13.95
2024-03-12T15:56:22.974Z,13.65
2024-03-12T15:58:52.356Z,13.32
2024-03-12T16:01:23.444Z,14.10
2024-03-12T16:03:53.601Z,12.57
2024-03-12T16:06:22.112Z,12.63
2024-03-12T16:08:51.715Z,12.80
2024-03-12T16:11:20.255Z,13.32
2024-03-12T16:13:48.725Z,12.63
2024-03-12T16:16:17.289Z,12.63
2024-03-12T16:18:45.734Z,12.73
2024-03-12T16:21:15.614Z,13.88
2024-03-12T16:23:43.926Z,13.95
2024-03-12T16:26:12.317Z,12.85
2024-03-12T16:28:41.260Z,13.80
2024-03-12T16:31:09.895Z,13.73
2024-03-12T16:33:41.983Z,14.55
2024-03-12T16:36:11.113Z,15.48
2024-03-12T16:38:40.928Z,10.48
2024-03-12T16:41:09.986Z,9.48
2024-03-12T16:43:38.336Z,10.35
2024-03-12T16:46:07.155Z,11.57
2024-03-12T16:48:39.669Z,10.82
2024-03-12T16:51:09.436Z,11.23
2024-03-12T16:53:37.875Z,11.45
2024-03-12T16:56:08.986Z,12.75
2024-03-12T16:58:38.017Z,13.05
2024-03-12T17:01:07.884Z,12.80
2024-03-12T17:03:36.915Z,12.88
2024-03-12T17:06:06.832Z,13.95
2024-03-12T17:08:35.856Z,14.82
2024-03-12T17:11:05.048Z,15.48
2024-03-12T17:13:35.730Z,15.63
2024-03-12T17:16:08.258Z,14.70
2024-03-12T17:18:37.166Z,14.65
2024-03-12T17:21:06.061Z,14.15
2024-03-12T17:23:35.176Z,14.63
2024-03-12T17:26:05.582Z,15.93
2024-03-12T17:28:36.107Z,15.40
2024-03-12T17:31:06.679Z,15.35
2024-03-12T17:33:35.704Z,14.98
2024-03-12T17:36:07.344Z,13.48
2024-03-12T17:38:36.305Z,13.60
2024-03-12T17:41:06.301Z,14.70
2024-03-12T17:43:37.932Z,14.25
2024-03-12T17:46:09.115Z,14.77
2024-03-12T17:48:41.489Z,13.85
2024-03-12T17:51:11.576Z,15.73
2024-03-12T17:53:41.379Z,15.15
2024-03-12T17:56:12.863Z,15.60
2024-03-12T17:58:47.356Z,14.82
2024-03-12T18:01:17.087Z,14.57
2024-03-12T18:03:46.117Z,14.55
2024-03-12T18:06:17.714Z,15.13
2024-03-12T18:08:53.613Z,15.80
2024-03-12T18:11:22.432Z,15.45
2024-03-12T18:13:52.753Z,14.60
2024-03-12T18:16:21.308Z,14.75
2024-03-12T18:18:49.870Z,15.00
2024-03-12T18:21:18.538Z,14.10
2024-03-12T18:23:46.989Z,13.93
2024-03-12T18:26:18.847Z,16.90
2024-03-12T18:28:47.374Z,16.42
2024-03-12T18:31:17.841Z,17.30
2024-03-12T18:33:46.277Z,18.17
2024-03-12T18:36:15.307Z,16.85
2024-03-12T18:38:43.797Z,17.25
2024-03-12T18:41:14.122Z,16.92
2024-03-12T18:43:43.159Z,16.55
2024-03-12T18:46:11.657Z,16.75
2024-03-12T18:48:42.835Z,16.00
2024-03-12T18:51:12.049Z,17.77
2024-03-12T18:53:41.283Z,16.25
2024-03-12T18:56:10.872Z,17.83
2024-03-12T18:58:39.957Z,18.58
2024-03-12T19:01:09.677Z,19.08
2024-03-12T19:03:50.408Z,19.40
2024-03-12T19:06:26.211Z,19.00
2024-03-12T19:08:56.684Z,19.58
2024-03-12T19:11:25.931Z,20.08
2024-03-12T19:13:55.904Z,20.30
2024-03-12T19:16:25.842Z,20.52
2024-03-12T19:18:56.061Z,19.92
2024-03-12T19:21:25.043Z,18.30
2024-03-12T19:23:55.730Z,17.42
2024-03-12T19:26:24.192Z,20.25
2024-03-12T19:28:56.548Z,21.65
2024-03-12T19:31:26.012Z,18.23
2024-03-12T19:33:56.341Z,20.83
2024-03-12T19:36:43.262Z,26.02
2024-03-12T19:39:13.205Z,31.80
2024-03-12T19:41:45.851Z,25.35
2024-03-12T19:44:15.218Z,23.55
2024-03-12T19:46:44.254Z,36.45
2024-03-12T19:49:15.305Z,45.83
2024-03-12T19:51:44.348Z,78.15
2024-03-12T19:54:17.176Z,42.47
2024-03-12T19:56:47.790Z,34.60
2024-03-12T19:59:16.352Z,23.08
2024-03-12T20:01:45.348Z,21.08
2024-03-12T20:04:15.265Z,24.70
2024-03-12T20:06:45.275Z,23.40
2024-03-12T20:09:23.273Z,24.05
2024-03-12T20:11:53.119Z,24.08
2024-03-12T20:14:25.062Z,27.80
2024-03-12T20:16:53.617Z,23.05
2024-03-12T20:19:24.018Z,20.17
2024-03-12T20:21:52.463Z,22.00
2024-03-12T20:24:21.180Z,20.35
2024-03-12T20:26:49.638Z,20.95
2024-03-12T20:29:18.019Z,32.65
2024-03-12T20:31:46.923Z,26.58
2024-03-12T20:34:17.043Z,21.60
2024-03-12T20:36:47.738Z,23.10
2024-03-12T20:39:16.464Z,21.73
2024-03-12T20:41:44.850Z,23.90
2024-03-12T20:44:13.250Z,23.42
2024-03-12T20:46:41.713Z,20.67
2024-03-12T20:49:10.207Z,27.38
2024-03-12T20:51:38.664Z,23.45
2024-03-12T20:54:08.523Z,22.02
2024-03-12T20:56:36.985Z,21.75
2024-03-12T20:59:06.289Z,22.23
2024-03-12T21:01:35.186Z,23.00
2024-03-12T21:04:06.687Z,22.13
2024-03-12T21:06:35.336Z,21.90
2024-03-12T21:09:11.417Z,28.25
2024-03-12T21:11:41.369Z,23.38
2024-03-12T21:14:09.834Z,22.30
2024-03-12T21:16:38.271Z,20.77
2024-03-12T21:19:06.721Z,22.27
2024-03-12T21:21:35.181Z,21.45
2024-03-12T21:24:03.685Z,21.65
2024-03-12T21:26:33.493Z,24.88
2024-03-12T21:29:03.326Z,22.98
2024-03-12T21:31:32.371Z,24.13
2024-03-12T21:34:02.068Z,22.85
2024-03-12T21:36:30.571Z,24.17
2024-03-12T21:38:59.123Z,22.50
2024-03-12T21:41:27.582Z,22.83
2024-03-12T21:43:56.062Z,23.27
2024-03-12T21:46:25.924Z,24.08
2024-03-12T21:48:54.382Z,23.45
2024-03-12T21:51:27.907Z,22.95
2024-03-12T21:53:56.398Z,24.25
2024-03-12T21:56:25.186Z,24.17
2024-03-12T21:58:54.351Z,22.65
2024-03-12T22:01:22.903Z,23.67
2024-03-12T22:03:54.572Z,22.88
2024-03-12T22:06:24.187Z,24.30
2024-03-12T22:08:52.841Z,24.08
2024-03-12T22:11:21.506Z,24.73
2024-03-12T22:13:49.977Z,24.55
2024-03-12T22:16:19.005Z,23.25
2024-03-12T22:18:47.935Z,23.95
2024-03-12T22:21:23.708Z,25.95
2024-03-12T22:23:52.127Z,25.35
2024-03-12T22:26:20.536Z,24.08
2024-03-12T22:28:49.097Z,24.75
2024-03-12T22:31:17.531Z,25.63
2024-03-12T22:33:46.034Z,25.13
2024-03-12T22:36:14.585Z,25.60
2024-03-12T22:38:44.963Z,25.20
2024-03-12T22:41:14.292Z,24.73
2024-03-12T22:43:43.509Z,23.88
2024-03-12T22:46:12.565Z,24.90
2024-03-12T22:48:43.857Z,24.75
2024-03-12T22:51:13.782Z,25.80
2024-03-12T22:53:46.813Z,24.80
2024-03-12T22:56:20.566Z,25.05
2024-03-12T22:58:50.148Z,24.83
2024-03-12T23:01:19.059Z,24.98
2024-03-12T23:03:47.933Z,26.17
2024-03-12T23:06:17.005Z,24.98
2024-03-12T23:08:46.085Z,24.23
2024-03-12T23:11:15.723Z,25.40
2024-03-12T23:13:45.603Z,25.48
2024-03-12T23:16:16.316Z,24.92
2024-03-12T23:18:46.810Z,26.58
2024-03-12T23:21:18.529Z,25.98
2024-03-12T23:23:47.166Z,25.73
2024-03-12T23:26:18.181Z,26.73
2024-03-12T23:28:48.450Z,28.13
2024-03-12T23:31:18.235Z,27.58
2024-03-12T23:33:46.709Z,27.00
2024-03-12T23:36:21.159Z,27.67
2024-03-12T23:38:50.040Z,27.35
2024-03-12T23:41:18.590Z,27.02
2024-03-12T23:43:48.385Z,27.15
2024-03-12T23:46:16.919Z,28.30
2024-03-12T23:48:45.497Z,28.33
2024-03-12T23:51:14.105Z,28.10
2024-03-12T23:53:42.914Z,27.10
2024-03-12T23:56:12.973Z,28.50
2024-03-12T23:58:41.450Z,26.38
